createdAt,value
2023-02-22T00:06:42.671Z,8.07
2023-02-22T00:14:20.490Z,8.07
2023-02-22T00:21:54.513Z,8.05
2023-02-22T00:29:29.776Z,8.02
2023-02-22T00:37:04.375Z,7.97
2023-02-22T00:44:39.445Z,7.84
2023-02-22T00:52:13.384Z,7.77
2023-02-22T01:15:33.126Z,7.54
2023-02-22T01:23:08.240Z,7.50
2023-02-22T01:30:43.587Z,7.41
2023-02-22T01:38:18.255Z,7.32
2023-02-22T01:53:54.366Z,7.08
2023-02-22T02:01:30.941Z,6.94
2023-02-22T02:09:11.297Z,6.88
2023-02-22T02:16:51.597Z,6.79
2023-02-22T02:25:05.399Z,6.70
2023-02-22T02:32:53.698Z,6.60
2023-02-22T02:40:36.439Z,6.54
2023-02-22T02:48:15.387Z,6.51
2023-02-22T02:55:49.623Z,6.49
2023-02-22T03:03:53.512Z,6.49
2023-02-22T03:11:34.614Z,6.53
2023-02-22T03:19:16.033Z,6.52
2023-02-22T03:26:54.751Z,6.54
2023-02-22T03:34:35.745Z,6.54
2023-02-22T03:42:13.218Z,6.55
2023-02-22T03:49:54.609Z,6.57
2023-02-22T03:57:33.256Z,6.58
2023-02-22T04:05:09.184Z,6.59
2023-02-22T04:12:43.079Z,6.58
2023-02-22T04:20:20.056Z,6.58
2023-02-22T04:27:54.362Z,6.61
2023-02-22T04:35:29.753Z,6.61
2023-02-22T04:43:03.603Z,6.59
2023-02-22T04:50:39.272Z,6.57
2023-02-22T04:58:13.108Z,6.58
2023-02-22T05:05:48.321Z,6.61
2023-02-22T05:13:22.222Z,6.61
2023-02-22T05:20:57.645Z,6.63
2023-02-22T05:28:32.447Z,6.68
2023-02-22T05:36:08.950Z,6.70
2023-02-22T05:43:42.832Z,6.69
2023-02-22T05:51:20.062Z,6.72
2023-02-22T05:58:54.257Z,6.75
2023-02-22T06:06:29.709Z,6.70
2023-02-22T06:14:03.591Z,6.72
2023-02-22T06:21:38.902Z,6.73
2023-02-22T06:29:13.220Z,6.76
2023-02-22T06:36:49.179Z,6.75
2023-02-22T06:44:23.351Z,6.78
2023-02-22T06:51:58.886Z,6.78
2023-02-22T06:59:32.790Z,6.78
2023-02-22T07:07:08.099Z,6.82
2023-02-22T07:14:41.907Z,6.89
2023-02-22T07:22:17.739Z,6.91
2023-02-22T07:29:51.613Z,6.96
2023-02-22T07:37:26.949Z,6.98
2023-02-22T07:45:00.743Z,7.04
2023-02-22T07:52:36.988Z,7.08
2023-02-22T08:00:16.505Z,7.15
2023-02-22T08:07:52.141Z,7.17
2023-02-22T08:15:28.782Z,7.23
2023-02-22T08:23:04.881Z,7.27
2023-02-22T08:38:34.098Z,7.40
2023-02-22T08:46:08.140Z,7.48
2023-02-22T08:53:43.515Z,7.54
2023-02-22T09:01:24.742Z,7.62
2023-02-22T09:09:07.085Z,7.66
2023-02-22T09:16:41.076Z,7.71
2023-02-22T09:24:16.648Z,7.84
2023-02-22T09:31:52.142Z,7.95
2023-02-22T09:39:27.692Z,8.06
2023-02-22T09:47:01.637Z,8.16
2023-02-22T09:54:40.946Z,8.24
2023-02-22T10:02:25.000Z,8.31
2023-02-22T10:10:06.665Z,8.39
2023-02-22T10:17:48.569Z,8.48
2023-02-22T10:25:27.224Z,8.54
2023-02-22T10:33:07.496Z,8.61
2023-02-22T10:40:47.768Z,8.70
2023-02-22T10:48:23.862Z,8.76
2023-02-22T10:56:13.354Z,8.80
2023-02-22T11:03:48.373Z,8.89
2023-02-22T11:11:26.544Z,8.98
2023-02-22T11:19:03.413Z,8.96
2023-02-22T11:26:43.168Z,9.04
2023-02-22T11:34:35.408Z,9.10
2023-02-22T11:42:24.399Z,9.12
2023-02-22T11:49:58.360Z,9.11
2023-02-22T12:06:00.844Z,9.11
2023-02-22T12:13:46.422Z,9.18
2023-02-22T12:21:23.069Z,9.21
2023-02-22T12:29:05.496Z,9.29
2023-02-22T12:36:45.698Z,9.29
2023-02-22T12:44:25.464Z,9.34
2023-02-22T12:52:19.374Z,9.32
2023-02-22T13:00:03.012Z,9.34
2023-02-22T13:07:44.249Z,9.36
2023-02-22T13:15:24.975Z,9.43
2023-02-22T13:23:04.815Z,9.51
2023-02-22T13:30:45.585Z,9.57
2023-02-22T13:39:00.495Z,9.57
2023-02-22T13:47:18.161Z,9.59
2023-02-22T13:54:55.796Z,9.62
2023-02-22T14:03:02.338Z,9.59
2023-02-22T14:18:47.171Z,9.68
2023-02-22T14:26:27.572Z,9.58
2023-02-22T14:34:07.983Z,9.60
2023-02-22T14:41:49.050Z,9.62
2023-02-22T14:49:30.333Z,9.63
2023-02-22T14:57:16.053Z,9.61
2023-02-22T15:04:56.416Z,9.61
2023-02-22T15:12:31.075Z,9.55
2023-02-22T15:20:11.590Z,9.51
2023-02-22T15:27:47.971Z,9.44
2023-02-22T15:35:29.411Z,9.42
2023-02-22T15:43:08.626Z,9.37
2023-02-22T15:51:00.547Z,9.32
2023-02-22T15:58:35.138Z,9.24
2023-02-22T16:06:13.675Z,9.14
2023-02-22T16:13:54.503Z,9.05
2023-02-22T16:21:54.117Z,9.00
2023-02-22T16:29:28.344Z,8.94
2023-02-22T16:37:03.906Z,8.85
2023-02-22T16:44:38.093Z,8.76
2023-02-22T16:52:13.527Z,8.67
2023-02-22T16:59:50.384Z,8.61
2023-02-22T17:07:30.084Z,8.52
2023-02-22T17:15:04.623Z,8.45
2023-02-22T17:22:39.913Z,8.37
2023-02-22T17:30:14.714Z,8.32
2023-02-22T17:37:49.845Z,8.22
2023-02-22T17:45:24.526Z,8.17
2023-02-22T18:00:53.891Z,8.02
2023-02-22T18:08:31.349Z,7.95
2023-02-22T18:16:06.489Z,7.88
2023-02-22T18:31:33.067Z,7.78
2023-02-22T18:39:11.863Z,7.70
2023-02-22T18:46:45.868Z,7.61
2023-02-22T18:54:22.221Z,7.49
2023-02-22T19:01:56.372Z,7.41
2023-02-22T19:09:32.550Z,7.34
2023-02-22T19:17:07.305Z,7.27
2023-02-22T19:24:42.596Z,7.19
2023-02-22T19:32:17.622Z,7.11
2023-02-22T19:39:53.160Z,7.05
2023-02-22T19:55:21.726Z,6.93
2023-02-22T20:03:05.945Z,6.90
2023-02-22T20:10:43.149Z,6.92
2023-02-22T20:18:17.242Z,6.86
2023-02-22T20:25:57.404Z,6.87
2023-02-22T20:33:31.660Z,6.85
2023-02-22T20:41:08.810Z,6.84
2023-02-22T20:48:42.546Z,6.79
2023-02-22T21:04:13.747Z,6.69
2023-02-22T21:12:10.619Z,6.64
2023-02-22T21:19:45.840Z,6.55
2023-02-22T21:27:20.120Z,6.49
2023-02-22T21:34:55.806Z,6.41
2023-02-22T21:42:29.916Z,6.33
2023-02-22T21:50:05.735Z,6.29
2023-02-22T21:57:40.802Z,6.20
2023-02-22T22:05:18.177Z,6.13
2023-02-22T22:12:53.155Z,6.06
2023-02-22T22:20:29.206Z,6.00
2023-02-22T22:28:03.121Z,5.95
2023-02-22T22:35:39.812Z,5.88
2023-02-22T22:43:13.958Z,5.81
2023-02-22T22:58:55.768Z,5.72
2023-02-22T23:06:33.315Z,5.66
2023-02-22T23:14:07.719Z,5.63
2023-02-22T23:21:44.732Z,5.56
2023-02-22T23:29:20.141Z,5.54
2023-02-22T23:36:55.893Z,5.49
2023-02-22T23:44:30.218Z,5.44
2023-02-22T23:52:06.819Z,5.39
2023-02-22T23:59:40.888Z,5.38
